Time;durP1;ratioP1;P1;durP2;ratioP2;P2;SDS_P1;SDS_P2;PMS_P1;PMS_P2;Temp;Humidity;BMP_temperature;BMP_pressure;BME280_temperature;BME280_humidity;BME280_pressure;Samples;Min_cycle;Max_cycle;Signal;HPM_P1;HPM_P2
2022/02/03 00:02:26;;;;;;;40.05;2.92;;;16.30;17.50;;;;;;5072426;28;20542;-65
2022/02/03 00:05:15;;;;;;;42.17;3.20;;;16.30;18.20;;;;;;5072485;28;20130;-68
2022/02/03 00:10:32;;;;;;;43.72;3.45;;;16.10;17.40;;;;;;5072827;28;20085;-67
2022/02/03 00:16:26;;;;;;;24.05;2.28;;;16.00;17.70;;;;;;5071573;28;20122;-67
2022/02/03 00:24:39;;;;;;;26.50;2.70;;;15.90;18.60;;;;;;5072367;28;20115;-66
2022/02/03 00:27:17;;;;;;;20.30;2.33;;;15.80;18.90;;;;;;5070655;28;20183;-66
2022/02/03 00:51:18;;;;;;;28.25;2.25;;;15.30;19.00;;;;;;5072697;28;20438;-66
2022/02/03 00:53:45;;;;;;;19.95;2.17;;;15.10;19.60;;;;;;5070291;28;20137;-65
2022/02/03 00:56:14;;;;;;;29.63;2.20;;;15.00;19.60;;;;;;5071587;28;20065;-66
2022/02/03 00:58:52;;;;;;;35.90;2.55;;;14.90;19.10;;;;;;5069133;28;20077;-66
2022/02/03 01:01:23;;;;;;;37.90;2.85;;;14.90;18.30;;;;;;5069849;28;20500;-67
2022/02/03 01:03:51;;;;;;;35.05;2.55;;;14.80;18.00;;;;;;5069288;28;20665;-64
2022/02/03 01:06:20;;;;;;;24.02;1.95;;;14.80;17.70;;;;;;5068453;28;20508;-65
2022/02/03 01:08:48;;;;;;;29.08;2.08;;;14.80;17.50;;;;;;5071400;28;20484;-67
2022/02/03 01:11:20;;;;;;;11.95;2.20;;;14.70;17.80;;;;;;5067982;28;20566;-65
2022/02/03 01:13:57;;;;;;;14.07;1.38;;;14.70;18.20;;;;;;5069570;28;20092;-65
2022/02/03 01:35:15;;;;;;;18.27;2.58;;;13.90;22.00;;;;;;5070329;28;20251;-64
2022/02/03 01:43:30;;;;;;;30.10;2.95;;;13.60;22.90;;;;;;5069503;28;20080;-67
2022/02/03 01:46:11;;;;;;;24.65;3.08;;;13.60;23.10;;;;;;5070867;28;20085;-64
2022/02/03 01:51:42;;;;;;;36.60;4.05;;;13.40;23.10;;;;;;5071845;28;20077;-66
2022/02/03 01:54:09;;;;;;;33.38;3.13;;;13.40;22.80;;;;;;5068923;28;20073;-65
2022/02/03 01:56:56;;;;;;;28.70;3.40;;;13.40;22.70;;;;;;5069261;28;20507;-67
2022/02/03 01:59:25;;;;;;;35.17;3.85;;;13.40;22.60;;;;;;5070249;28;20097;-65
2022/02/03 02:02:00;;;;;;;41.30;3.67;;;13.40;22.70;;;;;;5068828;28;20084;-69
2022/02/03 02:05:00;;;;;;;30.35;3.55;;;13.40;23.00;;;;;;5070111;28;20104;-69
2022/02/03 02:07:52;;;;;;;33.45;4.13;;;13.30;23.40;;;;;;5069683;28;20065;-65
2022/02/03 02:11:04;;;;;;;31.63;3.85;;;13.20;23.80;;;;;;5068591;28;20104;-65
2022/02/03 02:14:06;;;;;;;32.15;3.47;;;13.20;24.10;;;;;;5068184;28;20211;-66
2022/02/03 02:39:32;;;;;;;23.08;3.08;;;12.80;23.30;;;;;;5069684;28;20073;-64
2022/02/03 02:45:13;;;;;;;22.55;2.55;;;12.80;23.40;;;;;;5070008;28;20156;-68
2022/02/03 02:47:43;;;;;;;16.73;1.85;;;12.70;23.40;;;;;;5068198;28;20527;-66
2022/02/03 02:50:25;;;;;;;20.35;1.75;;;12.70;23.30;;;;;;5068374;28;20083;-66
2022/02/03 02:53:18;;;;;;;14.90;2.10;;;12.60;23.10;;;;;;5069043;28;20069;-66
2022/02/03 02:56:16;;;;;;;20.45;1.98;;;12.60;23.10;;;;;;5067951;28;20093;-66
2022/02/03 03:29:31;;;;;;;25.58;3.00;;;12.30;22.90;;;;;;5069209;28;20092;-64
2022/02/03 03:37:47;;;;;;;26.60;2.15;;;12.10;22.60;;;;;;5068294;28;20072;-63
2022/02/03 03:40:12;;;;;;;29.52;2.25;;;12.20;22.70;;;;;;5068274;28;20077;-63
2022/02/03 03:42:53;;;;;;;19.15;2.05;;;12.10;22.80;;;;;;5049298;28;20076;-63
2022/02/03 03:45:21;;;;;;;25.13;2.40;;;12.10;22.80;;;;;;5069384;28;20134;-65
2022/02/03 03:47:50;;;;;;;27.35;2.55;;;12.10;22.80;;;;;;5051190;28;20076;-71
2022/02/03 03:50:18;;;;;;;29.27;2.17;;;12.10;22.80;;;;;;5050713;28;20085;-63
2022/02/03 03:53:01;;;;;;;23.38;2.65;;;12.00;23.00;;;;;;5069224;28;20168;-65
2022/02/03 03:56:01;;;;;;;25.33;2.72;;;12.00;23.60;;;;;;5068017;28;20073;-66
2022/02/03 04:57:21;;;;;;;28.48;3.35;;;10.40;28.90;;;;;;5071816;28;20069;-63
2022/02/03 05:09:10;;;;;;;26.70;2.90;;;10.00;29.30;;;;;;5070336;28;20085;-67
2022/02/03 05:12:01;;;;;;;27.92;3.40;;;10.00;29.50;;;;;;5070374;28;20080;-64
2022/02/03 05:21:31;;;;;;;23.38;2.92;;;9.90;28.70;;;;;;5071875;28;20089;-66
2022/02/03 05:32:09;;;;;;;19.35;2.70;;;10.00;27.60;;;;;;5071030;28;20092;-65
2022/02/03 05:47:14;;;;;;;36.40;7.38;;;10.00;28.70;;;;;;5070834;28;20104;-68
2022/02/03 06:08:33;;;;;;;36.20;7.55;;;9.80;28.70;;;;;;5070191;28;20150;-68
2022/02/03 06:14:07;;;;;;;43.03;7.78;;;9.80;28.80;;;;;;5055582;28;20439;-66
2022/02/03 06:22:11;;;;;;;34.03;5.22;;;9.80;29.00;;;;;;5069394;28;20118;-70
2022/02/03 06:27:24;;;;;;;39.90;6.95;;;9.70;29.10;;;;;;5068908;28;20432;-65
2022/02/03 06:27:42;;;;;;;50.47;7.45;;;9.70;28.90;;;;;;5069496;28;20573;-67
2022/02/03 06:30:11;;;;;;;36.33;7.88;;;9.70;29.30;;;;;;5068790;28;20087;-64
2022/02/03 06:32:39;;;;;;;29.63;6.25;;;9.60;29.20;;;;;;5068983;28;20539;-69
2022/02/03 06:35:07;;;;;;;32.28;6.90;;;9.60;29.40;;;;;;5067504;28;20168;-66
2022/02/03 06:37:35;;;;;;;27.45;5.00;;;9.50;29.30;;;;;;5069919;28;20077;-68
2022/02/03 06:40:02;;;;;;;32.50;4.60;;;9.60;29.60;;;;;;5067879;28;20083;-69
2022/02/03 06:42:29;;;;;;;29.92;4.50;;;9.60;28.20;;;;;;5068429;28;20539;-67
2022/02/03 06:45:08;;;;;;;;;;;9.70;28.40;;;;;;5068924;28;20164;-70
2022/02/03 06:47:50;;;;;;;19.95;2.97;;;9.80;28.80;;;;;;5068608;28;19964;-67
2022/02/03 06:50:23;;;;;;;20.60;2.92;;;9.80;27.80;;;;;;5067780;28;20499;-69
2022/02/03 06:53:13;;;;;;;27.75;3.42;;;9.90;27.10;;;;;;5053960;28;20073;-67
2022/02/03 06:55:46;;;;;;;35.30;3.42;;;9.90;27.10;;;;;;5068705;28;20080;-68
2022/02/03 07:00:53;;;;;;;20.25;4.95;;;9.90;28.20;;;;;;5070151;28;20126;-68
2022/02/03 07:03:23;;;;;;;22.33;3.50;;;9.80;28.20;;;;;;5053429;28;20104;-65
2022/02/03 07:05:49;;;;;;;29.50;3.83;;;9.80;27.90;;;;;;5052129;28;20523;-66
2022/02/03 07:08:18;;;;;;;24.83;3.65;;;9.80;28.10;;;;;;5050218;28;20517;-66
2022/02/03 07:10:45;;;;;;;25.15;3.42;;;9.70;27.70;;;;;;5069484;28;20081;-64
2022/02/03 07:13:14;;;;;;;28.42;3.20;;;9.70;27.60;;;;;;5049902;28;20069;-67
2022/02/03 07:15:40;;;;;;;27.95;3.58;;;9.70;27.50;;;;;;5066829;28;20193;-67
2022/02/03 07:18:06;;;;;;;;;;;9.60;27.30;;;;;;5067920;28;20144;-67
2022/02/03 07:20:34;;;;;;;21.70;2.95;;;9.60;27.00;;;;;;5067189;28;19957;-69
2022/02/03 07:23:02;;;;;;;30.15;3.30;;;9.60;27.00;;;;;;5052477;28;20211;-67
2022/02/03 07:25:30;;;;;;;20.92;3.00;;;9.60;27.10;;;;;;5066581;28;20100;-67
2022/02/03 07:27:57;;;;;;;17.52;2.95;;;9.60;27.50;;;;;;5068086;28;20141;-69
2022/02/03 07:30:24;;;;;;;20.17;2.85;;;9.60;28.90;;;;;;5066403;28;20069;-66
2022/02/03 07:32:55;;;;;;;;;;;9.50;28.90;;;;;;5068383;28;20142;-68
2022/02/03 07:35:22;;;;;;;20.85;3.47;;;9.40;27.90;;;;;;5069136;28;20141;-67
2022/02/03 07:37:51;;;;;;;23.20;3.75;;;9.40;28.10;;;;;;5067089;28;20097;-67
2022/02/03 07:40:18;;;;;;;31.00;4.30;;;9.40;28.40;;;;;;5069015;28;20104;-63
2022/02/03 07:42:47;;;;;;;29.95;4.18;;;9.30;29.30;;;;;;5071143;28;20094;-68
2022/02/03 07:45:14;;;;;;;22.20;3.45;;;9.30;29.20;;;;;;5070492;28;20093;-68
2022/02/03 07:47:49;;;;;;;17.85;2.45;;;9.10;28.90;;;;;;5055086;28;20434;-66
2022/02/03 07:50:18;;;;;;;23.52;3.40;;;8.90;28.50;;;;;;5071857;28;20069;-66
2022/02/03 07:52:45;;;;;;;36.42;4.03;;;8.90;28.80;;;;;;5073972;28;20566;-66
2022/02/03 07:55:12;;;;;;;28.75;4.38;;;8.80;29.10;;;;;;5071217;28;20325;-67
2022/02/03 07:57:47;;;;;;;48.08;5.43;;;8.80;29.10;;;;;;5071623;28;20084;-66
2022/02/03 08:00:16;;;;;;;34.17;4.95;;;8.90;29.60;;;;;;5071629;28;20569;-68
2022/02/03 08:02:43;;;;;;;21.55;4.60;;;8.90;29.60;;;;;;5071716;28;20069;-67
2022/02/03 08:05:13;;;;;;;31.23;5.13;;;8.90;29.60;;;;;;5071373;28;20080;-67
2022/02/03 08:08:02;;;;;;;32.38;4.82;;;8.90;29.80;;;;;;5071124;28;21425;-68
2022/02/03 08:10:36;;;;;;;36.70;5.57;;;8.90;29.90;;;;;;5071211;28;20176;-66
2022/02/03 08:13:05;;;;;;;38.08;5.53;;;8.90;30.30;;;;;;5070288;28;20250;-69
2022/02/03 08:15:33;;;;;;;26.10;5.05;;;8.90;31.30;;;;;;5070729;28;20160;-68
2022/02/03 08:18:06;;;;;;;36.97;5.22;;;8.90;33.10;;;;;;5070886;28;20144;-66
2022/02/03 08:20:32;;;;;;;28.73;5.43;;;8.80;32.10;;;;;;5071683;28;20535;-68
2022/02/03 08:25:57;;;;;;;37.33;4.85;;;8.50;32.70;;;;;;5070857;28;20022;-67
2022/02/03 08:31:01;;;;;;;36.70;5.57;;;8.60;31.90;;;;;;5072425;28;20431;-67
2022/02/03 08:33:29;;;;;;;33.92;5.75;;;8.70;32.80;;;;;;5070827;28;20624;-68
2022/02/03 08:35:58;;;;;;;43.47;5.38;;;8.60;32.60;;;;;;5070705;28;20073;-65
2022/02/03 08:41:02;;;;;;;41.83;5.32;;;8.50;32.70;;;;;;5072163;28;20575;-67
2022/02/03 08:43:32;;;;;;;30.27;3.92;;;8.50;32.20;;;;;;5070911;28;20077;-66
2022/02/03 08:46:00;;;;;;;30.33;3.80;;;8.50;31.70;;;;;;5071857;28;20089;-66
2022/02/03 08:48:27;;;;;;;27.30;3.58;;;8.50;31.10;;;;;;5070965;28;20113;-66
2022/02/03 08:50:55;;;;;;;22.08;3.25;;;8.60;32.50;;;;;;5070105;28;20096;-66
2022/02/03 08:53:41;;;;;;;17.55;3.13;;;8.50;32.30;;;;;;5072481;28;20526;-66
2022/02/03 09:37:30;;;;;;;11.02;1.95;;;9.00;26.90;;;;;;5069775;28;20068;-66
2022/02/03 09:53:26;;;;;;;6.72;1.40;;;9.30;25.40;;;;;;5069341;28;20104;-66
2022/02/03 09:58:23;;;;;;;13.80;3.20;;;9.40;24.70;;;;;;5070561;28;20080;-65
2022/02/03 10:01:07;;;;;;;8.73;2.97;;;9.40;24.60;;;;;;5069421;28;20163;-65
2022/02/03 10:06:17;;;;;;;12.85;2.10;;;9.40;24.70;;;;;;5070338;28;20073;-67
2022/02/03 10:08:55;;;;;;;8.18;1.83;;;9.40;24.90;;;;;;5069728;28;20097;-66
2022/02/03 10:11:29;;;;;;;7.90;2.08;;;9.40;25.20;;;;;;5070361;28;20085;-65
2022/02/03 10:13:57;;;;;;;9.73;2.10;;;9.40;25.40;;;;;;5069632;28;20493;-65
2022/02/03 10:16:30;;;;;;;9.48;1.88;;;9.40;25.50;;;;;;5067880;28;20104;-66
2022/02/03 10:19:13;;;;;;;6.13;1.80;;;9.30;25.60;;;;;;5068205;28;20077;-68
2022/02/03 10:21:42;;;;;;;9.63;1.70;;;9.40;25.30;;;;;;5070854;28;20081;-66
2022/02/03 10:24:14;;;;;;;8.38;1.63;;;9.40;25.30;;;;;;5052710;28;20555;-68
2022/02/03 10:26:46;;;;;;;4.90;1.30;;;9.40;25.20;;;;;;5069064;28;20072;-67
2022/02/03 10:29:21;;;;;;;2.63;1.17;;;9.40;25.20;;;;;;5068790;28;20108;-66
2022/02/03 10:31:48;;;;;;;4.45;1.20;;;9.40;25.30;;;;;;5053427;28;20107;-67
2022/02/03 10:34:23;;;;;;;5.68;1.00;;;9.50;25.40;;;;;;5068929;28;20503;-68
2022/02/03 10:37:10;;;;;;;10.90;1.80;;;9.40;25.40;;;;;;5052985;28;20126;-67
2022/02/03 10:42:30;;;;;;;6.88;0.80;;;9.40;26.00;;;;;;5068882;28;20104;-65
2022/02/03 10:45:10;;;;;;;4.85;0.68;;;9.40;25.60;;;;;;5068964;28;20179;-67
2022/02/03 10:51:19;;;;;;;4.78;0.45;;;9.40;25.90;;;;;;5069767;28;20084;-64
2022/02/03 10:53:46;;;;;;;4.65;0.47;;;9.40;25.90;;;;;;5063936;28;20081;-65
2022/02/03 11:09:48;;;;;;;4.60;0.55;;;8.90;27.60;;;;;;5069491;28;20096;-64
2022/02/03 11:12:20;;;;;;;;;;;8.90;27.80;;;;;;5068890;28;20073;-66
2022/02/03 11:14:47;;;;;;;2.03;0.43;;;8.80;27.80;;;;;;5069486;28;19953;-67
2022/02/03 11:17:18;;;;;;;5.78;0.63;;;8.80;27.70;;;;;;5068076;28;20117;-67
2022/02/03 11:19:51;;;;;;;4.28;0.50;;;8.80;27.50;;;;;;5034330;28;20080;-68
2022/02/03 11:22:28;;;;;;;3.15;0.40;;;8.80;27.20;;;;;;5068178;28;20073;-68
2022/02/03 11:25:38;;;;;;;6.85;0.75;;;8.80;27.10;;;;;;5068773;28;20069;-67
2022/02/03 11:28:25;;;;;;;6.63;0.50;;;8.80;27.10;;;;;;5066082;28;20082;-67
2022/02/03 11:49:27;;;;;;;;;;;8.50;30.40;;;;;;5068664;28;20086;-64
2022/02/03 11:54:29;;;;;;;;;;;8.30;30.30;;;;;;5070509;28;20085;-66
2022/02/03 12:02:38;;;;;;;4.60;0.50;;;8.10;29.80;;;;;;5068943;28;20069;-66
2022/02/03 12:19:10;;;;;;;5.53;0.70;;;7.80;30.40;;;;;;5068932;28;20077;-66
2022/02/03 12:21:50;;;;;;;8.13;0.90;;;7.70;30.50;;;;;;5052042;28;20135;-68
2022/02/03 12:27:26;;;;;;;3.10;1.13;;;7.70;32.80;;;;;;5069553;28;20103;-66
2022/02/03 12:30:00;;;;;;;8.05;1.13;;;7.70;32.40;;;;;;5070824;28;20085;-66
2022/02/03 12:43:02;;;;;;;5.82;1.20;;;7.60;31.20;;;;;;5072394;28;20073;-67
2022/02/03 12:45:28;;;;;;;14.20;1.48;;;7.50;31.80;;;;;;5070545;28;20072;-67
2022/02/03 12:48:01;;;;;;;5.90;1.20;;;7.50;32.30;;;;;;5070918;28;20081;-67
2022/02/03 12:50:35;;;;;;;6.15;0.90;;;7.50;33.00;;;;;;5055073;28;20073;-67
2022/02/03 12:53:03;;;;;;;3.92;1.00;;;7.30;33.20;;;;;;5071224;28;20233;-64
2022/02/03 12:55:35;;;;;;;5.32;1.00;;;7.40;33.00;;;;;;5037207;28;20069;-67
2022/02/03 12:58:05;;;;;;;6.65;1.13;;;7.30;33.60;;;;;;5053445;28;20085;-67
2022/02/03 13:00:42;;;;;;;7.80;1.10;;;7.20;33.60;;;;;;5069738;28;20089;-68
2022/02/03 13:03:11;;;;;;;2.15;1.00;;;7.20;32.90;;;;;;5070276;28;20088;-67
2022/02/03 13:05:40;;;;;;;7.53;0.98;;;7.30;33.00;;;;;;5070550;28;20077;-69
2022/02/03 13:08:11;;;;;;;4.97;1.08;;;7.30;32.70;;;;;;5069864;28;20140;-67
2022/02/03 13:10:40;;;;;;;5.97;0.90;;;7.30;33.00;;;;;;5069215;28;20096;-67
2022/02/03 13:13:19;;;;;;;9.25;0.98;;;7.30;33.20;;;;;;5069921;28;20072;-66
2022/02/03 13:15:45;;;;;;;11.70;1.00;;;7.30;33.40;;;;;;5069791;28;20085;-66
2022/02/03 13:18:22;;;;;;;9.30;1.00;;;7.30;33.20;;;;;;5070668;28;20200;-68
2022/02/03 13:21:07;;;;;;;;;;;7.30;33.30;;;;;;5055670;28;20074;-66
2022/02/03 13:23:39;;;;;;;9.15;0.90;;;7.30;33.80;;;;;;5070664;28;20084;-67
2022/02/03 13:26:10;;;;;;;8.20;1.13;;;7.20;33.80;;;;;;5071040;28;20064;-66
2022/02/03 13:28:46;;;;;;;8.68;1.05;;;7.10;32.10;;;;;;5052999;28;20597;-67
2022/02/03 13:31:28;;;;;;;9.25;1.20;;;7.10;32.00;;;;;;5071130;28;20122;-66
2022/02/03 13:34:07;;;;;;;11.80;1.23;;;7.10;32.20;;;;;;5039889;28;20084;-67
2022/02/03 13:36:42;;;;;;;12.05;1.08;;;7.10;31.20;;;;;;5071180;28;20459;-65
2022/02/03 13:39:15;;;;;;;5.55;1.13;;;7.10;31.10;;;;;;5068010;28;20069;-68
2022/02/03 13:41:44;;;;;;;11.18;0.88;;;7.10;31.20;;;;;;5071168;28;20408;-66
2022/02/03 13:44:17;;;;;;;6.65;0.90;;;7.10;31.20;;;;;;5069234;28;20420;-66
2022/02/03 13:46:44;;;;;;;8.32;1.00;;;7.10;30.70;;;;;;5071082;28;20080;-64
2022/02/03 13:49:22;;;;;;;7.32;0.70;;;7.20;29.70;;;;;;5069966;28;20608;-66
2022/02/03 13:52:10;;;;;;;8.02;0.85;;;7.30;29.10;;;;;;5069551;28;20080;-69
2022/02/03 14:17:28;;;;;;;;;;;7.10;31.50;;;;;;5070673;28;20116;-67
2022/02/03 14:22:17;;;;;;;24.00;2.78;;;7.00;32.80;;;;;;5070633;28;20096;-66
2022/02/03 14:27:31;;;;;;;24.02;2.58;;;6.90;33.50;;;;;;5069870;28;20080;-69
2022/02/03 14:30:15;;;;;;;21.30;2.15;;;6.80;34.20;;;;;;5068844;28;20226;-67
2022/02/03 14:32:42;;;;;;;18.83;3.05;;;6.80;34.00;;;;;;5069857;28;20598;-66
2022/02/03 14:35:11;;;;;;;16.05;2.90;;;6.80;34.30;;;;;;5052442;28;20084;-67
2022/02/03 14:37:50;;;;;;;29.30;3.17;;;6.80;35.20;;;;;;5068221;28;20558;-66
2022/02/03 14:40:32;;;;;;;26.65;2.75;;;6.70;35.40;;;;;;5053931;28;20077;-66
2022/02/03 14:42:59;;;;;;;22.45;2.05;;;6.70;34.50;;;;;;5068103;28;20206;-66
2022/02/03 14:45:26;;;;;;;34.58;2.78;;;6.50;34.30;;;;;;5070322;28;20091;-66
2022/02/03 14:47:52;;;;;;;18.73;1.88;;;6.50;34.90;;;;;;5069850;28;20181;-66
2022/02/03 14:50:19;;;;;;;;;;;6.60;34.80;;;;;;5051107;28;20081;-68
2022/02/03 14:52:57;;;;;;;30.65;2.60;;;6.50;34.60;;;;;;5069132;28;19957;-60
2022/02/03 14:58:25;;;;;;;28.75;2.55;;;6.60;36.50;;;;;;5067572;28;20088;-62
2022/02/03 15:00:52;;;;;;;27.00;2.70;;;6.60;36.90;;;;;;5067847;28;20204;-67
2022/02/03 15:03:20;;;;;;;34.17;3.40;;;6.60;36.30;;;;;;5066956;28;20511;-67
2022/02/03 15:05:47;;;;;;;29.13;3.72;;;6.70;37.00;;;;;;5068260;28;20145;-65
2022/02/03 15:08:17;;;;;;;40.03;4.03;;;6.70;37.50;;;;;;5067037;28;20101;-67
2022/02/03 15:10:50;;;;;;;31.33;3.25;;;6.70;36.60;;;;;;5051727;28;20085;-69
2022/02/03 15:13:32;;;;;;;33.97;4.05;;;6.80;35.40;;;;;;5069376;28;20455;-68
2022/02/03 15:16:00;;;;;;;33.28;3.65;;;6.90;36.20;;;;;;5067907;28;20105;-67
2022/02/03 15:18:30;;;;;;;37.70;3.83;;;7.00;35.70;;;;;;5068094;28;20519;-69
2022/02/03 15:20:57;;;;;;;31.38;3.65;;;7.10;35.40;;;;;;5049537;28;20073;-67
2022/02/03 15:23:24;;;;;;;27.45;3.20;;;7.30;34.60;;;;;;5068533;28;20100;-66
2022/02/03 15:25:51;;;;;;;40.50;4.13;;;7.40;32.60;;;;;;5068565;28;20111;-69
2022/02/03 15:28:18;;;;;;;;;;;7.50;31.40;;;;;;5051723;28;20097;-66
2022/02/03 15:30:45;;;;;;;24.70;3.20;;;7.70;31.20;;;;;;5067453;28;19957;-67
2022/02/03 15:33:12;;;;;;;27.15;2.97;;;7.90;31.20;;;;;;5050128;28;20103;-68
2022/02/03 15:35:51;;;;;;;23.05;3.53;;;8.00;30.70;;;;;;5067357;28;20122;-65
2022/02/03 15:38:20;;;;;;;19.02;3.17;;;8.20;29.70;;;;;;5068235;28;20073;-68
2022/02/03 15:40:49;;;;;;;20.92;2.72;;;8.40;29.20;;;;;;5066866;28;20073;-66
2022/02/03 15:45:52;;;;;;;21.55;2.42;;;8.80;27.10;;;;;;5068985;28;20895;-67
2022/02/03 15:48:30;;;;;;;16.52;2.13;;;9.10;26.50;;;;;;5067978;28;20073;-67
2022/02/03 15:56:55;;;;;;;21.83;2.67;;;9.70;25.20;;;;;;5068507;28;20135;-68
2022/02/03 16:18:12;;;;;;;26.17;1.83;;;11.10;23.10;;;;;;5074266;28;20116;-66
2022/02/03 16:20:45;;;;;;;;;;;11.20;22.80;;;;;;5075073;28;20076;-67
2022/02/03 16:26:43;;;;;;;5.88;1.05;;;11.50;22.70;;;;;;5040647;28;20085;-66
2022/02/03 16:50:57;;;;;;;19.58;1.33;;;13.70;22.10;;;;;;5074024;28;20100;-67
2022/02/03 16:53:24;;;;;;;16.88;1.23;;;13.90;21.90;;;;;;5072545;28;20080;-65
2022/02/03 16:55:50;;;;;;;19.85;1.40;;;14.40;21.30;;;;;;5072674;28;20093;-65
2022/02/03 16:58:16;;;;;;;;;;;14.30;21.10;;;;;;5072762;28;20160;-66
2022/02/03 17:00:47;;;;;;;19.10;1.50;;;14.50;21.40;;;;;;5070726;28;19957;-64
2022/02/03 17:03:13;;;;;;;23.33;0.90;;;14.70;21.70;;;;;;5072301;28;20069;-66
2022/02/03 17:05:40;;;;;;;;;;;14.90;21.20;;;;;;5071120;28;20084;-65
2022/02/03 17:08:07;;;;;;;19.95;1.70;;;14.70;20.70;;;;;;5071831;28;20403;-67
2022/02/03 17:10:35;;;;;;;11.68;1.35;;;15.00;21.10;;;;;;5069395;28;20160;-67
2022/02/03 17:13:02;;;;;;;16.13;0.75;;;15.20;20.90;;;;;;5072354;28;20155;-65
2022/02/03 17:15:29;;;;;;;14.05;1.20;;;15.50;21.30;;;;;;5072864;28;20069;-69
2022/02/03 17:17:55;;;;;;;19.65;1.25;;;16.20;21.00;;;;;;5071912;28;20123;-66
2022/02/03 17:20:27;;;;;;;20.95;1.25;;;16.40;20.70;;;;;;5070761;28;20085;-65
2022/02/03 17:22:55;;;;;;;19.85;1.13;;;16.30;20.80;;;;;;5069364;28;20179;-66
2022/02/03 17:25:33;;;;;;;12.93;1.20;;;16.20;20.70;;;;;;5070060;28;20077;-66
2022/02/03 17:28:07;;;;;;;11.05;1.40;;;16.10;19.80;;;;;;5071210;28;20146;-67
2022/02/03 17:30:45;;;;;;;18.95;1.35;;;16.50;20.20;;;;;;5068741;28;20569;-65
2022/02/03 17:53:26;;;;;;;14.52;1.30;;;18.70;17.30;;;;;;5009195;28;20085;-66
2022/02/03 18:09:06;;;;;;;12.93;1.27;;;20.00;17.30;;;;;;4993363;28;19981;-66
2022/02/03 18:11:54;;;;;;;5.90;0.90;;;20.60;16.40;;;;;;4991762;28;20089;-65
2022/02/03 18:30:52;;;;;;;22.85;1.40;;;20.80;15.50;;;;;;5036313;28;20092;-68
2022/02/03 18:52:22;;;;;;;14.80;1.48;;;23.10;14.40;;;;;;5052049;28;20132;-64
2022/02/03 18:55:10;;;;;;;17.88;1.17;;;22.60;14.50;;;;;;5054081;28;20580;-66
2022/02/03 20:06:10;;;;;;;20.17;1.30;;;17.70;16.50;;;;;;5055779;28;20076;-65
2022/02/03 20:08:46;;;;;;;18.85;1.27;;;17.40;16.70;;;;;;5056954;28;20088;-67
2022/02/03 20:11:15;;;;;;;13.07;0.87;;;17.40;17.10;;;;;;5071760;28;20091;-67
2022/02/03 20:13:42;;;;;;;14.43;1.40;;;17.60;17.00;;;;;;5071488;28;20305;-67
2022/02/03 20:16:08;;;;;;;11.27;1.00;;;17.70;16.90;;;;;;5070791;28;20142;-65
2022/02/03 20:18:35;;;;;;;10.02;1.20;;;17.70;16.80;;;;;;5071582;28;20069;-65
2022/02/03 20:21:01;;;;;;;;;;;17.50;16.70;;;;;;5055292;28;20104;-65
2022/02/03 20:23:27;;;;;;;13.43;1.15;;;17.50;16.80;;;;;;5055406;28;19979;-65
2022/02/03 20:25:57;;;;;;;;;;;17.50;16.90;;;;;;5071900;28;20070;-66
2022/02/03 20:28:28;;;;;;;14.70;1.02;;;17.40;17.30;;;;;;5054772;28;20068;-66
2022/02/03 20:30:55;;;;;;;20.13;1.77;;;17.50;16.90;;;;;;5054328;28;20152;-67
2022/02/03 20:33:22;;;;;;;10.38;0.88;;;17.70;16.60;;;;;;5071307;28;20081;-66
2022/02/03 20:35:49;;;;;;;19.33;1.00;;;17.60;16.80;;;;;;5072248;28;20147;-66
2022/02/03 20:38:16;;;;;;;22.10;1.30;;;17.60;16.80;;;;;;5054121;28;20069;-67
2022/02/03 20:40:43;;;;;;;16.23;0.90;;;17.70;16.40;;;;;;5071122;28;20407;-67
2022/02/03 20:43:10;;;;;;;12.43;1.00;;;17.50;16.20;;;;;;5054026;28;20508;-65
2022/02/03 20:45:39;;;;;;;14.70;1.42;;;17.80;16.50;;;;;;5071256;28;20075;-66
2022/02/03 20:48:06;;;;;;;18.02;1.00;;;17.80;16.50;;;;;;5070236;28;20073;-64
2022/02/03 20:50:35;;;;;;;13.32;1.20;;;18.00;16.40;;;;;;5070796;28;20467;-67
2022/02/03 20:53:03;;;;;;;13.27;1.35;;;18.10;16.30;;;;;;5071147;28;20101;-66
2022/02/03 20:55:29;;;;;;;20.65;1.20;;;18.10;16.30;;;;;;5071055;28;20081;-65
2022/02/03 20:57:55;;;;;;;15.95;1.10;;;18.00;16.20;;;;;;5072416;28;20084;-65
2022/02/03 21:00:25;;;;;;;;;;;18.00;16.40;;;;;;5070581;28;20077;-66
2022/02/03 21:02:59;;;;;;;19.70;1.40;;;18.00;16.70;;;;;;5071844;28;19972;-66
2022/02/03 21:05:26;;;;;;;16.58;1.55;;;17.90;16.70;;;;;;5070277;28;20080;-65
2022/02/03 21:07:52;;;;;;;11.45;1.13;;;17.80;16.80;;;;;;5036274;28;20424;-64
2022/02/03 21:10:27;;;;;;;14.30;0.90;;;17.90;16.80;;;;;;5071774;28;20183;-65
2022/02/03 21:12:55;;;;;;;12.90;0.95;;;17.90;16.60;;;;;;5070238;28;20073;-65
2022/02/03 21:15:31;;;;;;;12.90;0.85;;;17.80;16.40;;;;;;5036377;28;20142;-65
2022/02/03 21:18:01;;;;;;;13.05;1.60;;;17.70;16.60;;;;;;5038550;28;20199;-66
2022/02/03 21:20:28;;;;;;;21.13;1.00;;;17.50;17.30;;;;;;5069666;28;20077;-67
2022/02/03 21:22:54;;;;;;;11.60;1.40;;;17.60;16.80;;;;;;5070221;28;20073;-65
2022/02/03 21:27:53;;;;;;;32.95;2.83;;;17.80;16.90;;;;;;5069571;28;20560;-66
2022/02/03 21:30:21;;;;;;;13.32;1.00;;;17.80;16.90;;;;;;5069457;28;20397;-65
2022/02/03 21:32:49;;;;;;;8.43;1.13;;;18.00;16.60;;;;;;5071559;28;20435;-65
2022/02/03 21:35:16;;;;;;;11.85;1.13;;;18.00;16.50;;;;;;5070149;28;20069;-66
2022/02/03 21:37:44;;;;;;;21.77;1.10;;;18.00;16.80;;;;;;5069486;28;20073;-66
2022/02/03 21:40:11;;;;;;;14.38;1.30;;;18.00;17.00;;;;;;5068831;28;20123;-66
2022/02/03 21:42:37;;;;;;;14.68;1.00;;;18.10;17.10;;;;;;5069434;28;20160;-67
2022/02/03 21:45:06;;;;;;;8.90;0.90;;;17.90;17.10;;;;;;5070230;28;20089;-66
2022/02/03 21:47:33;;;;;;;13.02;1.63;;;18.00;17.30;;;;;;5070642;28;20089;-65
2022/02/03 21:49:59;;;;;;;15.60;1.40;;;18.30;17.40;;;;;;5069263;28;20085;-67
2022/02/03 21:52:44;;;;;;;16.42;1.45;;;18.10;17.00;;;;;;5072774;28;20081;-67
2022/02/03 21:55:10;;;;;;;6.25;1.20;;;18.00;17.20;;;;;;5070159;28;20162;-65
2022/02/03 21:57:43;;;;;;;18.42;2.15;;;17.90;17.10;;;;;;5069411;28;20183;-68
2022/02/03 22:00:12;;;;;;;14.30;1.60;;;17.90;17.20;;;;;;5067557;28;21465;-73
2022/02/03 22:02:39;;;;;;;17.05;1.40;;;18.00;16.90;;;;;;5069125;28;20115;-66
2022/02/03 22:05:11;;;;;;;9.82;1.02;;;18.00;16.80;;;;;;5068750;28;20081;-67
2022/02/03 22:07:42;;;;;;;16.75;1.30;;;18.10;17.00;;;;;;5068843;28;20096;-66
2022/02/03 22:10:10;;;;;;;19.38;1.25;;;18.20;16.90;;;;;;5070269;28;20149;-68
2022/02/03 22:12:37;;;;;;;13.70;1.20;;;18.10;16.90;;;;;;5069004;28;20450;-66
2022/02/03 22:15:05;;;;;;;16.30;1.55;;;18.20;17.00;;;;;;5067682;28;20088;-64
2022/02/03 22:17:32;;;;;;;22.75;1.48;;;18.30;16.90;;;;;;5068478;28;20566;-64
2022/02/03 22:20:03;;;;;;;12.13;1.17;;;18.40;17.10;;;;;;5067989;28;20088;-66
2022/02/03 22:46:38;;;;;;;13.45;1.58;;;18.50;17.00;;;;;;5069661;28;20126;-67
2022/02/03 22:49:09;;;;;;;11.80;1.00;;;18.60;17.30;;;;;;5067055;28;20094;-65
2022/02/03 22:51:38;;;;;;;13.68;1.00;;;18.70;17.10;;;;;;5067790;28;20070;-66
2022/02/03 22:54:09;;;;;;;25.45;1.35;;;18.70;17.10;;;;;;5068470;28;20092;-65
2022/02/03 22:56:36;;;;;;;15.63;1.63;;;18.80;17.20;;;;;;5066734;28;20076;-64
2022/02/03 22:59:32;;;;;;;20.42;1.63;;;18.70;17.20;;;;;;5068897;28;20162;-64
2022/02/03 23:01:51;;;;;;;12.57;1.27;;;18.60;17.40;;;;;;5069101;28;20084;-67
2022/02/03 23:04:18;;;;;;;;;;;18.50;17.60;;;;;;5068394;28;20072;-66
2022/02/03 23:06:45;;;;;;;16.08;1.30;;;18.70;17.90;;;;;;5052833;28;20399;-66
2022/02/03 23:09:28;;;;;;;9.90;1.05;;;18.90;17.80;;;;;;5068781;28;20089;-65
2022/02/03 23:12:15;;;;;;;20.65;1.58;;;18.90;17.70;;;;;;5067959;28;20093;-67
2022/02/03 23:17:54;;;;;;;14.43;1.35;;;19.00;17.20;;;;;;5070395;28;20113;-64
2022/02/03 23:22:37;;;;;;;14.05;1.35;;;18.80;17.90;;;;;;5069808;28;20065;-66
2022/02/03 23:25:07;;;;;;;13.52;1.08;;;18.90;17.90;;;;;;5069261;28;20142;-66
2022/02/03 23:28:08;;;;;;;20.25;1.20;;;19.00;17.70;;;;;;5069096;28;20091;-68
2022/02/03 23:30:34;;;;;;;10.57;0.90;;;18.70;17.70;;;;;;5069901;28;20562;-65
2022/02/03 23:33:01;;;;;;;15.68;1.35;;;18.40;17.90;;;;;;5068942;28;20088;-64
2022/02/03 23:35:30;;;;;;;22.23;1.50;;;18.50;18.10;;;;;;5069076;28;20107;-64
2022/02/03 23:51:51;;;;;;;11.75;1.88;;;18.20;18.00;;;;;;5020174;28;20086;-65
